sensor_id;sensor_type;location;lat;lon;timestamp;P1;durP1;ratioP1;P2;durP2;ratioP2
46318;SDS011;32042;50.916;2.926;2022-12-18T00:01:32;50.60;;;22.27;;
46318;SDS011;32042;50.916;2.926;2022-12-18T00:03:59;46.80;;;23.10;;
46318;SDS011;32042;50.916;2.926;2022-12-18T00:06:26;44.60;;;22.53;;
46318;SDS011;32042;50.916;2.926;2022-12-18T00:08:52;52.47;;;23.10;;
46318;SDS011;32042;50.916;2.926;2022-12-18T00:11:19;52.00;;;22.33;;
46318;SDS011;32042;50.916;2.926;2022-12-18T00:13:46;50.03;;;22.73;;
46318;SDS011;32042;50.916;2.926;2022-12-18T00:16:13;48.10;;;22.97;;
46318;SDS011;32042;50.916;2.926;2022-12-18T00:18:39;47.63;;;21.40;;
46318;SDS011;32042;50.916;2.926;2022-12-18T00:21:06;46.37;;;21.67;;
46318;SDS011;32042;50.916;2.926;2022-12-18T00:23:33;44.43;;;20.83;;
46318;SDS011;32042;50.916;2.926;2022-12-18T00:26:00;39.50;;;20.10;;
46318;SDS011;32042;50.916;2.926;2022-12-18T00:28:26;41.97;;;20.47;;
46318;SDS011;32042;50.916;2.926;2022-12-18T00:31:05;41.63;;;21.10;;
46318;SDS011;32042;50.916;2.926;2022-12-18T00:33:32;51.43;;;23.77;;
46318;SDS011;32042;50.916;2.926;2022-12-18T00:36:04;51.93;;;24.40;;
46318;SDS011;32042;50.916;2.926;2022-12-18T00:38:31;53.17;;;23.70;;
46318;SDS011;32042;50.916;2.926;2022-12-18T00:40:57;54.60;;;23.63;;
46318;SDS011;32042;50.916;2.926;2022-12-18T00:43:23;45.57;;;24.10;;
46318;SDS011;32042;50.916;2.926;2022-12-18T00:45:49;56.23;;;25.10;;
46318;SDS011;32042;50.916;2.926;2022-12-18T00:48:15;61.10;;;25.73;;
46318;SDS011;32042;50.916;2.926;2022-12-18T00:50:41;52.33;;;25.20;;
46318;SDS011;32042;50.916;2.926;2022-12-18T00:53:07;59.63;;;26.47;;
46318;SDS011;32042;50.916;2.926;2022-12-18T00:55:33;52.87;;;25.07;;
46318;SDS011;32042;50.916;2.926;2022-12-18T00:57:59;57.07;;;25.83;;
46318;SDS011;32042;50.916;2.926;2022-12-18T01:00:25;57.23;;;25.13;;
46318;SDS011;32042;50.916;2.926;2022-12-18T01:02:51;57.77;;;25.43;;
46318;SDS011;32042;50.916;2.926;2022-12-18T01:05:17;51.30;;;25.20;;
46318;SDS011;32042;50.916;2.926;2022-12-18T01:07:43;56.03;;;25.07;;
46318;SDS011;32042;50.916;2.926;2022-12-18T01:10:09;51.83;;;24.37;;
46318;SDS011;32042;50.916;2.926;2022-12-18T01:12:37;46.50;;;22.27;;
46318;SDS011;32042;50.916;2.926;2022-12-18T01:15:03;49.90;;;25.03;;
46318;SDS011;32042;50.916;2.926;2022-12-18T01:17:29;57.30;;;24.27;;
46318;SDS011;32042;50.916;2.926;2022-12-18T01:19:55;52.23;;;24.23;;
46318;SDS011;32042;50.916;2.926;2022-12-18T01:22:21;45.00;;;24.47;;
46318;SDS011;32042;50.916;2.926;2022-12-18T01:24:48;50.13;;;22.87;;
46318;SDS011;32042;50.916;2.926;2022-12-18T01:27:14;42.93;;;21.73;;
46318;SDS011;32042;50.916;2.926;2022-12-18T01:29:40;49.27;;;23.20;;
46318;SDS011;32042;50.916;2.926;2022-12-18T01:32:06;46.50;;;22.63;;
46318;SDS011;32042;50.916;2.926;2022-12-18T01:34:32;47.00;;;21.93;;
46318;SDS011;32042;50.916;2.926;2022-12-18T01:36:59;44.17;;;21.60;;
46318;SDS011;32042;50.916;2.926;2022-12-18T01:39:27;45.07;;;21.43;;
46318;SDS011;32042;50.916;2.926;2022-12-18T01:41:53;43.73;;;21.67;;
46318;SDS011;32042;50.916;2.926;2022-12-18T01:50:06;43.90;;;21.30;;
46318;SDS011;32042;50.916;2.926;2022-12-18T01:52:33;43.80;;;21.13;;
46318;SDS011;32042;50.916;2.926;2022-12-18T01:55:00;45.10;;;21.87;;
46318;SDS011;32042;50.916;2.926;2022-12-18T01:57:27;44.63;;;21.50;;
46318;SDS011;32042;50.916;2.926;2022-12-18T01:59:55;43.50;;;21.57;;
46318;SDS011;32042;50.916;2.926;2022-12-18T02:02:22;42.20;;;20.30;;
46318;SDS011;32042;50.916;2.926;2022-12-18T02:04:48;39.10;;;20.00;;
46318;SDS011;32042;50.916;2.926;2022-12-18T02:12:16;36.63;;;19.73;;
46318;SDS011;32042;50.916;2.926;2022-12-18T02:14:45;44.27;;;20.43;;
46318;SDS011;32042;50.916;2.926;2022-12-18T02:22:45;41.90;;;21.70;;
46318;SDS011;32042;50.916;2.926;2022-12-18T02:27:49;45.77;;;21.80;;
46318;SDS011;32042;50.916;2.926;2022-12-18T02:30:17;35.67;;;19.77;;
46318;SDS011;32042;50.916;2.926;2022-12-18T02:32:48;44.30;;;21.37;;
46318;SDS011;32042;50.916;2.926;2022-12-18T02:35:17;39.37;;;21.07;;
46318;SDS011;32042;50.916;2.926;2022-12-18T02:37:47;39.13;;;20.30;;
46318;SDS011;32042;50.916;2.926;2022-12-18T02:40:14;44.07;;;21.33;;
46318;SDS011;32042;50.916;2.926;2022-12-18T02:42:43;41.97;;;21.13;;
46318;SDS011;32042;50.916;2.926;2022-12-18T02:45:10;44.70;;;22.77;;
46318;SDS011;32042;50.916;2.926;2022-12-18T02:47:37;42.30;;;21.70;;
46318;SDS011;32042;50.916;2.926;2022-12-18T02:50:48;46.23;;;23.30;;
46318;SDS011;32042;50.916;2.926;2022-12-18T02:57:50;47.70;;;22.87;;
46318;SDS011;32042;50.916;2.926;2022-12-18T03:00:20;47.00;;;23.40;;
46318;SDS011;32042;50.916;2.926;2022-12-18T03:05:17;44.57;;;23.07;;
46318;SDS011;32042;50.916;2.926;2022-12-18T03:07:53;43.97;;;22.63;;
46318;SDS011;32042;50.916;2.926;2022-12-18T03:10:24;45.30;;;22.43;;
46318;SDS011;32042;50.916;2.926;2022-12-18T03:12:56;48.80;;;21.87;;
46318;SDS011;32042;50.916;2.926;2022-12-18T03:15:28;47.07;;;22.27;;
46318;SDS011;32042;50.916;2.926;2022-12-18T03:17:57;40.17;;;20.97;;
46318;SDS011;32042;50.916;2.926;2022-12-18T03:20:25;47.10;;;23.67;;
46318;SDS011;32042;50.916;2.926;2022-12-18T03:22:53;46.10;;;22.37;;
46318;SDS011;32042;50.916;2.926;2022-12-18T03:25:21;51.73;;;23.57;;
46318;SDS011;32042;50.916;2.926;2022-12-18T03:27:49;47.77;;;23.00;;
46318;SDS011;32042;50.916;2.926;2022-12-18T03:30:17;47.00;;;22.67;;
46318;SDS011;32042;50.916;2.926;2022-12-18T03:32:53;43.57;;;22.17;;
46318;SDS011;32042;50.916;2.926;2022-12-18T03:35:23;41.40;;;21.53;;
46318;SDS011;32042;50.916;2.926;2022-12-18T03:37:50;45.83;;;22.67;;
46318;SDS011;32042;50.916;2.926;2022-12-18T03:40:17;40.70;;;21.40;;
46318;SDS011;32042;50.916;2.926;2022-12-18T03:42:53;45.13;;;21.60;;
46318;SDS011;32042;50.916;2.926;2022-12-18T03:45:23;46.37;;;21.50;;
46318;SDS011;32042;50.916;2.926;2022-12-18T03:47:58;38.63;;;19.83;;
46318;SDS011;32042;50.916;2.926;2022-12-18T03:53:15;39.83;;;20.20;;
46318;SDS011;32042;50.916;2.926;2022-12-18T03:55:43;44.30;;;21.93;;
46318;SDS011;32042;50.916;2.926;2022-12-18T03:58:09;41.87;;;20.10;;
46318;SDS011;32042;50.916;2.926;2022-12-18T04:00:37;42.03;;;21.90;;
46318;SDS011;32042;50.916;2.926;2022-12-18T04:03:03;39.70;;;19.67;;
46318;SDS011;32042;50.916;2.926;2022-12-18T04:05:29;34.97;;;19.97;;
46318;SDS011;32042;50.916;2.926;2022-12-18T04:07:56;38.17;;;20.70;;
46318;SDS011;32042;50.916;2.926;2022-12-18T04:10:22;40.13;;;19.17;;
46318;SDS011;32042;50.916;2.926;2022-12-18T04:12:48;35.37;;;18.63;;
46318;SDS011;32042;50.916;2.926;2022-12-18T04:15:14;38.50;;;19.77;;
46318;SDS011;32042;50.916;2.926;2022-12-18T04:17:43;35.67;;;19.10;;
46318;SDS011;32042;50.916;2.926;2022-12-18T04:20:12;40.70;;;18.47;;
46318;SDS011;32042;50.916;2.926;2022-12-18T04:22:38;36.03;;;19.43;;
46318;SDS011;32042;50.916;2.926;2022-12-18T04:25:04;36.03;;;19.10;;
46318;SDS011;32042;50.916;2.926;2022-12-18T04:27:31;36.63;;;18.70;;
46318;SDS011;32042;50.916;2.926;2022-12-18T04:29:57;33.33;;;18.60;;
46318;SDS011;32042;50.916;2.926;2022-12-18T04:32:23;32.87;;;19.43;;
46318;SDS011;32042;50.916;2.926;2022-12-18T04:34:49;36.83;;;18.33;;
46318;SDS011;32042;50.916;2.926;2022-12-18T04:37:15;34.23;;;18.77;;
46318;SDS011;32042;50.916;2.926;2022-12-18T04:39:41;40.23;;;19.93;;
46318;SDS011;32042;50.916;2.926;2022-12-18T04:42:07;35.17;;;18.77;;
46318;SDS011;32042;50.916;2.926;2022-12-18T04:44:33;34.50;;;18.07;;
46318;SDS011;32042;50.916;2.926;2022-12-18T04:46:59;35.00;;;19.10;;
46318;SDS011;32042;50.916;2.926;2022-12-18T04:49:25;38.00;;;17.67;;
46318;SDS011;32042;50.916;2.926;2022-12-18T04:51:51;34.37;;;18.13;;
46318;SDS011;32042;50.916;2.926;2022-12-18T04:54:17;32.87;;;17.73;;
46318;SDS011;32042;50.916;2.926;2022-12-18T04:56:44;34.87;;;17.67;;
46318;SDS011;32042;50.916;2.926;2022-12-18T04:59:10;34.03;;;18.80;;
46318;SDS011;32042;50.916;2.926;2022-12-18T05:01:36;35.50;;;17.57;;
46318;SDS011;32042;50.916;2.926;2022-12-18T05:04:02;33.33;;;17.13;;
46318;SDS011;32042;50.916;2.926;2022-12-18T05:06:28;33.03;;;17.43;;
46318;SDS011;32042;50.916;2.926;2022-12-18T05:08:54;31.57;;;17.33;;
46318;SDS011;32042;50.916;2.926;2022-12-18T05:11:20;36.67;;;18.37;;
46318;SDS011;32042;50.916;2.926;2022-12-18T05:13:46;34.90;;;17.50;;
46318;SDS011;32042;50.916;2.926;2022-12-18T05:16:13;32.87;;;17.90;;
46318;SDS011;32042;50.916;2.926;2022-12-18T05:18:39;36.93;;;17.97;;
46318;SDS011;32042;50.916;2.926;2022-12-18T05:21:05;35.03;;;18.00;;
46318;SDS011;32042;50.916;2.926;2022-12-18T05:23:31;30.63;;;18.13;;
46318;SDS011;32042;50.916;2.926;2022-12-18T05:25:58;32.50;;;17.43;;
46318;SDS011;32042;50.916;2.926;2022-12-18T05:28:25;34.67;;;17.43;;
46318;SDS011;32042;50.916;2.926;2022-12-18T05:30:53;33.87;;;18.17;;
46318;SDS011;32042;50.916;2.926;2022-12-18T05:33:20;31.37;;;17.13;;
46318;SDS011;32042;50.916;2.926;2022-12-18T05:35:56;36.47;;;18.57;;
46318;SDS011;32042;50.916;2.926;2022-12-18T05:38:23;32.10;;;17.20;;
46318;SDS011;32042;50.916;2.926;2022-12-18T05:40:49;35.33;;;18.10;;
46318;SDS011;32042;50.916;2.926;2022-12-18T05:43:16;29.07;;;16.83;;
46318;SDS011;32042;50.916;2.926;2022-12-18T05:45:42;30.23;;;16.30;;
46318;SDS011;32042;50.916;2.926;2022-12-18T05:48:08;31.47;;;17.57;;
46318;SDS011;32042;50.916;2.926;2022-12-18T05:50:38;28.10;;;16.23;;
46318;SDS011;32042;50.916;2.926;2022-12-18T05:53:05;26.27;;;15.07;;
46318;SDS011;32042;50.916;2.926;2022-12-18T05:55:37;31.33;;;15.10;;
46318;SDS011;32042;50.916;2.926;2022-12-18T05:58:04;25.67;;;14.53;;
46318;SDS011;32042;50.916;2.926;2022-12-18T06:00:31;28.00;;;14.80;;
46318;SDS011;32042;50.916;2.926;2022-12-18T06:02:58;25.63;;;14.37;;
46318;SDS011;32042;50.916;2.926;2022-12-18T06:05:24;27.10;;;14.30;;
46318;SDS011;32042;50.916;2.926;2022-12-18T06:07:50;25.87;;;14.90;;
46318;SDS011;32042;50.916;2.926;2022-12-18T06:10:16;27.37;;;15.43;;
46318;SDS011;32042;50.916;2.926;2022-12-18T06:12:42;28.73;;;15.53;;
46318;SDS011;32042;50.916;2.926;2022-12-18T06:15:08;29.10;;;15.43;;
46318;SDS011;32042;50.916;2.926;2022-12-18T06:17:36;23.33;;;13.90;;
46318;SDS011;32042;50.916;2.926;2022-12-18T06:20:02;22.93;;;14.57;;
46318;SDS011;32042;50.916;2.926;2022-12-18T06:22:30;21.93;;;13.47;;
46318;SDS011;32042;50.916;2.926;2022-12-18T06:24:56;24.17;;;14.63;;
46318;SDS011;32042;50.916;2.926;2022-12-18T06:27:22;21.23;;;14.00;;
46318;SDS011;32042;50.916;2.926;2022-12-18T06:29:48;24.60;;;13.97;;
46318;SDS011;32042;50.916;2.926;2022-12-18T06:32:14;26.80;;;14.80;;
46318;SDS011;32042;50.916;2.926;2022-12-18T06:34:40;29.37;;;14.93;;
46318;SDS011;32042;50.916;2.926;2022-12-18T06:37:06;25.27;;;14.37;;
46318;SDS011;32042;50.916;2.926;2022-12-18T06:39:32;23.40;;;13.93;;
46318;SDS011;32042;50.916;2.926;2022-12-18T06:41:58;25.20;;;13.77;;
46318;SDS011;32042;50.916;2.926;2022-12-18T06:44:24;24.77;;;14.07;;
46318;SDS011;32042;50.916;2.926;2022-12-18T06:46:50;21.63;;;12.80;;
46318;SDS011;32042;50.916;2.926;2022-12-18T06:49:16;22.80;;;13.40;;
46318;SDS011;32042;50.916;2.926;2022-12-18T06:51:42;25.27;;;13.60;;
46318;SDS011;32042;50.916;2.926;2022-12-18T06:54:08;23.00;;;13.33;;
46318;SDS011;32042;50.916;2.926;2022-12-18T06:56:34;26.77;;;12.93;;
46318;SDS011;32042;50.916;2.926;2022-12-18T06:59:00;22.77;;;12.93;;
46318;SDS011;32042;50.916;2.926;2022-12-18T07:01:26;21.33;;;13.17;;
46318;SDS011;32042;50.916;2.926;2022-12-18T07:03:53;24.53;;;12.57;;
46318;SDS011;32042;50.916;2.926;2022-12-18T07:06:20;18.97;;;12.53;;
46318;SDS011;32042;50.916;2.926;2022-12-18T07:08:47;21.30;;;13.17;;
46318;SDS011;32042;50.916;2.926;2022-12-18T07:11:13;20.00;;;12.50;;
46318;SDS011;32042;50.916;2.926;2022-12-18T07:13:39;19.37;;;12.37;;
46318;SDS011;32042;50.916;2.926;2022-12-18T07:16:06;19.43;;;11.97;;
46318;SDS011;32042;50.916;2.926;2022-12-18T07:18:33;23.17;;;13.70;;
46318;SDS011;32042;50.916;2.926;2022-12-18T07:21:02;19.23;;;12.47;;
46318;SDS011;32042;50.916;2.926;2022-12-18T07:23:28;23.83;;;12.63;;
46318;SDS011;32042;50.916;2.926;2022-12-18T07:25:54;20.93;;;12.17;;
46318;SDS011;32042;50.916;2.926;2022-12-18T07:28:20;20.33;;;12.20;;
46318;SDS011;32042;50.916;2.926;2022-12-18T07:30:46;25.33;;;12.87;;
46318;SDS011;32042;50.916;2.926;2022-12-18T07:33:12;18.80;;;11.20;;
46318;SDS011;32042;50.916;2.926;2022-12-18T07:35:38;17.03;;;11.57;;
46318;SDS011;32042;50.916;2.926;2022-12-18T07:38:04;19.60;;;11.33;;
46318;SDS011;32042;50.916;2.926;2022-12-18T07:40:30;19.83;;;11.83;;
46318;SDS011;32042;50.916;2.926;2022-12-18T07:42:56;18.20;;;10.30;;
46318;SDS011;32042;50.916;2.926;2022-12-18T07:45:22;21.80;;;11.90;;
46318;SDS011;32042;50.916;2.926;2022-12-18T07:47:48;26.33;;;12.17;;
46318;SDS011;32042;50.916;2.926;2022-12-18T07:50:14;16.80;;;10.87;;
46318;SDS011;32042;50.916;2.926;2022-12-18T07:52:40;21.70;;;12.10;;
46318;SDS011;32042;50.916;2.926;2022-12-18T07:55:06;23.13;;;11.57;;
46318;SDS011;32042;50.916;2.926;2022-12-18T07:57:32;19.17;;;10.77;;
46318;SDS011;32042;50.916;2.926;2022-12-18T07:59:59;19.77;;;10.70;;
46318;SDS011;32042;50.916;2.926;2022-12-18T08:02:25;14.20;;;10.87;;
46318;SDS011;32042;50.916;2.926;2022-12-18T08:04:51;22.13;;;12.40;;
46318;SDS011;32042;50.916;2.926;2022-12-18T08:07:17;18.13;;;10.83;;
46318;SDS011;32042;50.916;2.926;2022-12-18T08:09:43;21.23;;;11.33;;
46318;SDS011;32042;50.916;2.926;2022-12-18T08:12:09;16.87;;;11.43;;
46318;SDS011;32042;50.916;2.926;2022-12-18T08:14:35;16.93;;;11.07;;
46318;SDS011;32042;50.916;2.926;2022-12-18T08:17:02;16.37;;;10.80;;
46318;SDS011;32042;50.916;2.926;2022-12-18T08:19:28;18.30;;;11.03;;
46318;SDS011;32042;50.916;2.926;2022-12-18T08:21:54;17.47;;;11.60;;
46318;SDS011;32042;50.916;2.926;2022-12-18T08:24:20;18.60;;;11.27;;
46318;SDS011;32042;50.916;2.926;2022-12-18T08:26:46;15.93;;;10.87;;
46318;SDS011;32042;50.916;2.926;2022-12-18T08:29:12;18.70;;;11.70;;
46318;SDS011;32042;50.916;2.926;2022-12-18T08:31:38;19.73;;;12.53;;
46318;SDS011;32042;50.916;2.926;2022-12-18T08:34:04;20.33;;;11.63;;
46318;SDS011;32042;50.916;2.926;2022-12-18T08:36:30;19.73;;;12.63;;
46318;SDS011;32042;50.916;2.926;2022-12-18T08:38:56;18.83;;;12.13;;
46318;SDS011;32042;50.916;2.926;2022-12-18T08:41:22;20.90;;;11.87;;
46318;SDS011;32042;50.916;2.926;2022-12-18T08:43:48;18.40;;;12.70;;
46318;SDS011;32042;50.916;2.926;2022-12-18T08:46:36;24.00;;;12.60;;
46318;SDS011;32042;50.916;2.926;2022-12-18T08:49:02;17.93;;;11.93;;
46318;SDS011;32042;50.916;2.926;2022-12-18T08:51:29;21.57;;;12.33;;
46318;SDS011;32042;50.916;2.926;2022-12-18T08:53:55;19.03;;;12.23;;
46318;SDS011;32042;50.916;2.926;2022-12-18T08:56:21;21.57;;;13.50;;
46318;SDS011;32042;50.916;2.926;2022-12-18T08:58:47;22.77;;;13.33;;
46318;SDS011;32042;50.916;2.926;2022-12-18T09:01:13;19.80;;;12.87;;
46318;SDS011;32042;50.916;2.926;2022-12-18T09:03:39;20.17;;;11.77;;
46318;SDS011;32042;50.916;2.926;2022-12-18T09:06:05;21.23;;;12.83;;
46318;SDS011;32042;50.916;2.926;2022-12-18T09:08:31;20.20;;;14.07;;
46318;SDS011;32042;50.916;2.926;2022-12-18T09:10:57;20.07;;;13.50;;
46318;SDS011;32042;50.916;2.926;2022-12-18T09:13:23;23.07;;;13.73;;
46318;SDS011;32042;50.916;2.926;2022-12-18T09:15:51;24.87;;;14.57;;
46318;SDS011;32042;50.916;2.926;2022-12-18T09:18:19;26.23;;;14.20;;
46318;SDS011;32042;50.916;2.926;2022-12-18T09:20:45;20.57;;;14.33;;
46318;SDS011;32042;50.916;2.926;2022-12-18T09:23:11;20.13;;;13.90;;
46318;SDS011;32042;50.916;2.926;2022-12-18T09:25:37;21.53;;;14.00;;
46318;SDS011;32042;50.916;2.926;2022-12-18T09:28:10;23.43;;;15.23;;
46318;SDS011;32042;50.916;2.926;2022-12-18T09:30:40;21.97;;;14.37;;
46318;SDS011;32042;50.916;2.926;2022-12-18T09:33:07;28.07;;;15.17;;
46318;SDS011;32042;50.916;2.926;2022-12-18T09:35:35;25.40;;;14.93;;
46318;SDS011;32042;50.916;2.926;2022-12-18T09:38:01;25.93;;;15.37;;
46318;SDS011;32042;50.916;2.926;2022-12-18T09:40:28;28.53;;;16.17;;
46318;SDS011;32042;50.916;2.926;2022-12-18T09:42:59;27.17;;;16.83;;
46318;SDS011;32042;50.916;2.926;2022-12-18T09:45:26;26.87;;;16.60;;
46318;SDS011;32042;50.916;2.926;2022-12-18T09:47:53;26.93;;;16.47;;
46318;SDS011;32042;50.916;2.926;2022-12-18T09:50:24;31.83;;;17.00;;
46318;SDS011;32042;50.916;2.926;2022-12-18T09:52:53;27.53;;;16.27;;
46318;SDS011;32042;50.916;2.926;2022-12-18T09:57:47;26.97;;;16.57;;
46318;SDS011;32042;50.916;2.926;2022-12-18T10:00:16;26.57;;;16.67;;
46318;SDS011;32042;50.916;2.926;2022-12-18T10:02:43;26.23;;;17.20;;
46318;SDS011;32042;50.916;2.926;2022-12-18T10:05:11;24.90;;;16.70;;
46318;SDS011;32042;50.916;2.926;2022-12-18T10:07:53;24.23;;;16.43;;
46318;SDS011;32042;50.916;2.926;2022-12-18T10:10:41;26.30;;;16.20;;
46318;SDS011;32042;50.916;2.926;2022-12-18T10:13:18;25.73;;;15.73;;
46318;SDS011;32042;50.916;2.926;2022-12-18T10:15:49;27.63;;;18.23;;
46318;SDS011;32042;50.916;2.926;2022-12-18T10:20:54;27.80;;;17.00;;
46318;SDS011;32042;50.916;2.926;2022-12-18T10:28:30;33.13;;;17.43;;
46318;SDS011;32042;50.916;2.926;2022-12-18T10:30:56;31.60;;;17.90;;
46318;SDS011;32042;50.916;2.926;2022-12-18T10:33:23;31.17;;;18.23;;
46318;SDS011;32042;50.916;2.926;2022-12-18T10:35:50;30.97;;;18.83;;
46318;SDS011;32042;50.916;2.926;2022-12-18T10:43:22;27.67;;;17.67;;
46318;SDS011;32042;50.916;2.926;2022-12-18T10:46:02;27.77;;;17.20;;
46318;SDS011;32042;50.916;2.926;2022-12-18T10:48:28;28.17;;;17.83;;
46318;SDS011;32042;50.916;2.926;2022-12-18T10:50:55;26.80;;;17.77;;
46318;SDS011;32042;50.916;2.926;2022-12-18T10:53:23;26.67;;;17.80;;
46318;SDS011;32042;50.916;2.926;2022-12-18T10:55:50;33.20;;;20.53;;
46318;SDS011;32042;50.916;2.926;2022-12-18T10:58:33;28.77;;;18.00;;
46318;SDS011;32042;50.916;2.926;2022-12-18T11:01:10;25.73;;;17.80;;
46318;SDS011;32042;50.916;2.926;2022-12-18T11:03:41;32.27;;;18.73;;
46318;SDS011;32042;50.916;2.926;2022-12-18T11:06:12;27.40;;;18.47;;
46318;SDS011;32042;50.916;2.926;2022-12-18T11:08:39;30.70;;;18.07;;
46318;SDS011;32042;50.916;2.926;2022-12-18T11:11:06;32.77;;;19.47;;
46318;SDS011;32042;50.916;2.926;2022-12-18T11:13:33;32.67;;;18.60;;
46318;SDS011;32042;50.916;2.926;2022-12-18T11:15:59;32.77;;;19.30;;
46318;SDS011;32042;50.916;2.926;2022-12-18T11:20:52;30.20;;;17.90;;
46318;SDS011;32042;50.916;2.926;2022-12-18T11:23:19;27.40;;;17.97;;
46318;SDS011;32042;50.916;2.926;2022-12-18T11:25:54;32.20;;;19.03;;
46318;SDS011;32042;50.916;2.926;2022-12-18T11:33:42;29.57;;;18.60;;
46318;SDS011;32042;50.916;2.926;2022-12-18T11:36:10;32.03;;;20.27;;
46318;SDS011;32042;50.916;2.926;2022-12-18T11:38:37;31.13;;;19.27;;
46318;SDS011;32042;50.916;2.926;2022-12-18T11:44:09;31.07;;;18.97;;
46318;SDS011;32042;50.916;2.926;2022-12-18T11:46:37;34.87;;;20.40;;
46318;SDS011;32042;50.916;2.926;2022-12-18T11:51:39;33.77;;;19.07;;
46318;SDS011;32042;50.916;2.926;2022-12-18T11:54:14;33.73;;;18.23;;
46318;SDS011;32042;50.916;2.926;2022-12-18T11:57:04;30.07;;;19.30;;
46318;SDS011;32042;50.916;2.926;2022-12-18T12:17:59;32.33;;;19.10;;
46318;SDS011;32042;50.916;2.926;2022-12-18T12:20:10;28.63;;;18.67;;
46318;SDS011;32042;50.916;2.926;2022-12-18T12:22:51;29.53;;;17.47;;
46318;SDS011;32042;50.916;2.926;2022-12-18T12:28:18;30.77;;;18.63;;
46318;SDS011;32042;50.916;2.926;2022-12-18T12:33:24;31.80;;;18.60;;
46318;SDS011;32042;50.916;2.926;2022-12-18T12:38:29;29.77;;;18.07;;
46318;SDS011;32042;50.916;2.926;2022-12-18T12:41:14;31.57;;;18.80;;
46318;SDS011;32042;50.916;2.926;2022-12-18T12:44:02;28.20;;;18.13;;
46318;SDS011;32042;50.916;2.926;2022-12-18T12:46:31;30.53;;;18.57;;
46318;SDS011;32042;50.916;2.926;2022-12-18T12:48:59;30.20;;;18.90;;
46318;SDS011;32042;50.916;2.926;2022-12-18T12:51:26;32.20;;;19.53;;
46318;SDS011;32042;50.916;2.926;2022-12-18T12:53:54;31.30;;;19.27;;
46318;SDS011;32042;50.916;2.926;2022-12-18T12:56:21;33.07;;;20.17;;
46318;SDS011;32042;50.916;2.926;2022-12-18T13:04:11;36.07;;;19.60;;
46318;SDS011;32042;50.916;2.926;2022-12-18T13:09:17;30.07;;;18.33;;
46318;SDS011;32042;50.916;2.926;2022-12-18T13:11:44;30.20;;;18.03;;
46318;SDS011;32042;50.916;2.926;2022-12-18T13:14:36;39.23;;;20.47;;
46318;SDS011;32042;50.916;2.926;2022-12-18T13:19:51;35.40;;;19.73;;
46318;SDS011;32042;50.916;2.926;2022-12-18T13:22:34;37.23;;;20.80;;
46318;SDS011;32042;50.916;2.926;2022-12-18T13:25:00;32.37;;;20.17;;
46318;SDS011;32042;50.916;2.926;2022-12-18T13:30:40;38.57;;;20.27;;
46318;SDS011;32042;50.916;2.926;2022-12-18T13:35:38;30.03;;;18.03;;
46318;SDS011;32042;50.916;2.926;2022-12-18T13:38:19;35.83;;;20.13;;
46318;SDS011;32042;50.916;2.926;2022-12-18T13:48:23;32.87;;;19.37;;
46318;SDS011;32042;50.916;2.926;2022-12-18T13:50:52;32.30;;;18.73;;
46318;SDS011;32042;50.916;2.926;2022-12-18T13:53:23;33.07;;;19.00;;
46318;SDS011;32042;50.916;2.926;2022-12-18T13:55:49;31.37;;;18.43;;
46318;SDS011;32042;50.916;2.926;2022-12-18T13:58:16;33.27;;;19.50;;
46318;SDS011;32042;50.916;2.926;2022-12-18T14:00:42;34.40;;;19.70;;
46318;SDS011;32042;50.916;2.926;2022-12-18T14:03:19;26.33;;;17.93;;
46318;SDS011;32042;50.916;2.926;2022-12-18T14:05:45;30.30;;;18.87;;
46318;SDS011;32042;50.916;2.926;2022-12-18T14:08:12;28.30;;;17.63;;
46318;SDS011;32042;50.916;2.926;2022-12-18T14:10:43;28.07;;;17.73;;
46318;SDS011;32042;50.916;2.926;2022-12-18T14:13:10;34.30;;;19.67;;
46318;SDS011;32042;50.916;2.926;2022-12-18T14:15:41;33.10;;;18.03;;
46318;SDS011;32042;50.916;2.926;2022-12-18T14:20:41;32.30;;;19.10;;
46318;SDS011;32042;50.916;2.926;2022-12-18T14:23:24;36.07;;;19.63;;
46318;SDS011;32042;50.916;2.926;2022-12-18T14:25:51;36.43;;;19.93;;
46318;SDS011;32042;50.916;2.926;2022-12-18T14:28:17;34.10;;;18.93;;
46318;SDS011;32042;50.916;2.926;2022-12-18T14:30:44;35.73;;;19.60;;
46318;SDS011;32042;50.916;2.926;2022-12-18T14:33:17;33.10;;;19.00;;
46318;SDS011;32042;50.916;2.926;2022-12-18T14:38:21;30.30;;;18.33;;
46318;SDS011;32042;50.916;2.926;2022-12-18T14:41:00;30.93;;;19.10;;
46318;SDS011;32042;50.916;2.926;2022-12-18T14:43:27;35.93;;;19.27;;
46318;SDS011;32042;50.916;2.926;2022-12-18T14:45:53;34.27;;;18.27;;
46318;SDS011;32042;50.916;2.926;2022-12-18T14:49:02;32.13;;;19.40;;
46318;SDS011;32042;50.916;2.926;2022-12-18T14:53:39;34.37;;;19.17;;
46318;SDS011;32042;50.916;2.926;2022-12-18T14:56:23;31.60;;;18.80;;
46318;SDS011;32042;50.916;2.926;2022-12-18T14:58:59;30.13;;;17.60;;
46318;SDS011;32042;50.916;2.926;2022-12-18T15:01:30;31.10;;;17.97;;
46318;SDS011;32042;50.916;2.926;2022-12-18T15:03:57;34.07;;;18.97;;
46318;SDS011;32042;50.916;2.926;2022-12-18T15:06:26;32.97;;;18.40;;
46318;SDS011;32042;50.916;2.926;2022-12-18T15:08:52;31.47;;;18.33;;
46318;SDS011;32042;50.916;2.926;2022-12-18T15:11:30;32.53;;;18.33;;
46318;SDS011;32042;50.916;2.926;2022-12-18T15:13:58;31.93;;;17.83;;
46318;SDS011;32042;50.916;2.926;2022-12-18T15:16:25;28.43;;;17.73;;
46318;SDS011;32042;50.916;2.926;2022-12-18T15:18:51;29.40;;;16.23;;
46318;SDS011;32042;50.916;2.926;2022-12-18T15:21:19;35.03;;;18.13;;
46318;SDS011;32042;50.916;2.926;2022-12-18T15:23:52;35.07;;;18.13;;
46318;SDS011;32042;50.916;2.926;2022-12-18T15:26:20;35.87;;;18.03;;
46318;SDS011;32042;50.916;2.926;2022-12-18T15:28:50;36.60;;;18.47;;
46318;SDS011;32042;50.916;2.926;2022-12-18T15:36:18;37.17;;;19.97;;
46318;SDS011;32042;50.916;2.926;2022-12-18T15:38:48;35.97;;;18.97;;
46318;SDS011;32042;50.916;2.926;2022-12-18T15:41:15;36.53;;;19.27;;
46318;SDS011;32042;50.916;2.926;2022-12-18T15:43:41;35.03;;;18.83;;
46318;SDS011;32042;50.916;2.926;2022-12-18T15:46:17;33.13;;;18.57;;
46318;SDS011;32042;50.916;2.926;2022-12-18T15:48:47;33.93;;;18.13;;
46318;SDS011;32042;50.916;2.926;2022-12-18T15:51:18;37.93;;;20.43;;
46318;SDS011;32042;50.916;2.926;2022-12-18T15:53:45;38.47;;;20.73;;
46318;SDS011;32042;50.916;2.926;2022-12-18T15:56:12;34.53;;;19.17;;
46318;SDS011;32042;50.916;2.926;2022-12-18T15:58:57;35.80;;;19.40;;
46318;SDS011;32042;50.916;2.926;2022-12-18T16:01:24;37.47;;;19.17;;
46318;SDS011;32042;50.916;2.926;2022-12-18T16:03:51;33.77;;;18.53;;
46318;SDS011;32042;50.916;2.926;2022-12-18T16:06:18;38.63;;;20.13;;
46318;SDS011;32042;50.916;2.926;2022-12-18T16:08:44;40.00;;;19.53;;
46318;SDS011;32042;50.916;2.926;2022-12-18T16:11:32;36.13;;;19.43;;
46318;SDS011;32042;50.916;2.926;2022-12-18T16:16:38;32.20;;;18.10;;
46318;SDS011;32042;50.916;2.926;2022-12-18T16:19:04;34.93;;;19.03;;
46318;SDS011;32042;50.916;2.926;2022-12-18T16:21:30;37.03;;;18.77;;
46318;SDS011;32042;50.916;2.926;2022-12-18T16:23:56;38.13;;;19.63;;
46318;SDS011;32042;50.916;2.926;2022-12-18T16:26:22;37.43;;;20.63;;
46318;SDS011;32042;50.916;2.926;2022-12-18T16:28:48;35.73;;;18.33;;
46318;SDS011;32042;50.916;2.926;2022-12-18T16:31:16;36.07;;;18.70;;